Flight Track Log - Related Links

Times and Time Zones

All times are in EDT time to prevent confusion due to time zone crossing. See the N290CD flight status page for this flight to view local times or setup timezone preferences in your user account.


Time Position Orientation Groundspeed Altitude Reporting Facility
EDT Latitude Longitude Course Direction KTS MPH feet Rate Location/Type
Sun 05:19:56 PM 35.3661 -80.7025 129° Southeast 109 125 1,300  Level Atlanta Center
Sun 05:20:45 PM 35.3511 -80.6800 129° Southeast 91 105 1,700 462 Climbing Atlanta Center
Sun 05:21:40 PM 35.3278 -80.6658 154° Southeast 106 122 2,100 569 Climbing Atlanta Center
Sun 05:22:41 PM 35.3000 -80.6414 144° Southeast 113 130 2,800 516 Climbing Atlanta Center
Sun 05:23:48 PM 35.2844 -80.6117 123° Southeast 106 122 3,200 375 Climbing Atlanta Center
Sun 05:24:49 PM 35.2686 -80.5717 116° Southeast 135 155 3,600 545 Climbing Atlanta Center
Sun 05:25:49 PM 35.2594 -80.5389 109° East 105 121 4,300 645 Climbing Atlanta Center
Sun 05:26:50 PM 35.2481 -80.5089 115° Southeast 90 104 4,900 466 Climbing Atlanta Center
Sun 05:27:45 PM 35.2369 -80.4839 119° Southeast 98 113 5,200 310 Climbing Atlanta Center
Sun 05:28:46 PM 35.2233 -80.4439 113° Southeast 122 140 5,500 248 Climbing Atlanta Center
Sun 05:29:46 PM 35.2075 -80.3986 113° Southeast 134 154 5,700 248 Climbing Atlanta Center
Sun 05:30:47 PM 35.1958 -80.3611 111° Southeast 133 153 6,000 295 Climbing Atlanta Center
Sun 05:31:48 PM 35.1778 -80.3186 117° Southeast 131 151 6,300 281 Climbing Atlanta Center
Sun 05:32:55 PM 35.1619 -80.2764 115° Southeast 130 150 6,600 269 Climbing Atlanta Center
Sun 05:34:00 PM 35.1528 -80.2355 105° East  Level FlightAware Approximate
Sun 05:41:00 PM 35.0885 -79.9691 115° Southeast  Level FlightAware Approximate
Sun 05:42:00 PM 35.0752 -79.9336 115° Southeast  Level FlightAware Approximate
Sun 05:43:00 PM 35.0619 -79.8980 115° Southeast  Level FlightAware Approximate
Sun 05:44:00 PM 35.0485 -79.8625 115° Southeast  Level FlightAware Approximate
Sun 05:45:00 PM 35.0352 -79.8270 115° Southeast  Level FlightAware Approximate
Sun 05:46:00 PM 35.0219 -79.7915 115° Southeast  Level FlightAware Approximate
Sun 05:47:00 PM 35.0085 -79.7560 115° Southeast  Level FlightAware Approximate
Sun 05:48:00 PM 34.9952 -79.7205 115° Southeast  Level FlightAware Approximate
Sun 05:49:00 PM 34.9818 -79.6850 115° Southeast  Level FlightAware Approximate
Sun 05:50:00 PM 34.9684 -79.6496 115° Southeast  Level FlightAware Approximate
Sun 05:51:00 PM 34.9550 -79.6141 115° Southeast  Level FlightAware Approximate
Sun 05:52:00 PM 34.9416 -79.5787 115° Southeast  Level FlightAware Approximate
Sun 05:53:00 PM 34.9282 -79.5433 115° Southeast  Level FlightAware Approximate
Sun 05:54:00 PM 34.9148 -79.5078 115° Southeast  Level FlightAware Approximate
Sun 05:55:00 PM 34.9013 -79.4724 115° Southeast  Level FlightAware Approximate
Sun 05:56:00 PM 34.8879 -79.4370 115° Southeast  Level FlightAware Approximate
Sun 05:57:00 PM 34.8745 -79.4017 115° Southeast  Level FlightAware Approximate
Sun 05:58:00 PM 34.8610 -79.3663 115° Southeast  Level FlightAware Approximate
Sun 05:59:00 PM 34.8475 -79.3309 115° Southeast  Level FlightAware Approximate
Sun 06:00:00 PM 34.8341 -79.2956 115° Southeast  Level FlightAware Approximate
Sun 06:01:00 PM 34.8206 -79.2602 115° Southeast  Level FlightAware Approximate
Sun 06:02:00 PM 34.8068 -79.2251 116° Southeast  Level FlightAware Approximate
Sun 06:03:00 PM 34.7929 -79.1900 116° Southeast  Level FlightAware Approximate
Sun 06:04:00 PM 34.7790 -79.1550 116° Southeast  Level FlightAware Approximate
Sun 06:05:00 PM 34.7650 -79.1199 116° Southeast  Level FlightAware Approximate
Sun 06:06:00 PM 34.7511 -79.0849 116° Southeast  Level FlightAware Approximate
Sun 06:07:00 PM 34.7372 -79.0498 116° Southeast  Level FlightAware Approximate
Sun 06:08:00 PM 34.7232 -79.0148 116° Southeast  Level FlightAware Approximate
Sun 06:09:00 PM 34.7092 -78.9798 116° Southeast  Level FlightAware Approximate
Sun 06:10:00 PM 34.6953 -78.9448 116° Southeast  Level FlightAware Approximate
Sun 06:11:00 PM 34.6813 -78.9098 116° Southeast  Level FlightAware Approximate
Sun 06:12:00 PM 34.6673 -78.8748 116° Southeast  Level FlightAware Approximate
Sun 06:13:00 PM 34.6533 -78.8399 116° Southeast  Level FlightAware Approximate
Sun 06:14:00 PM 34.6392 -78.8049 116° Southeast  Level FlightAware Approximate
Sun 06:15:00 PM 34.6252 -78.7700 116° Southeast  Level FlightAware Approximate
Sun 06:16:00 PM 34.6112 -78.7351 116° Southeast  Level FlightAware Approximate
Sun 06:17:00 PM 34.5971 -78.7002 116° Southeast  Level FlightAware Approximate
Sun 06:18:00 PM 34.5830 -78.6653 116° Southeast  Level FlightAware Approximate
Sun 06:19:00 PM 34.5690 -78.6304 116° Southeast  Level FlightAware Approximate
Sun 06:20:00 PM 34.5549 -78.5955 116° Southeast  Level FlightAware Approximate
Sun 06:21:00 PM 34.5404 -78.5609 117° Southeast  Level FlightAware Approximate
Sun 06:22:00 PM 34.5257 -78.5264 117° Southeast  Level FlightAware Approximate

Login

Don't have an account? Register now (free) for customized features, flight alerts, and more!